Terminal Aerodrome Forecast
Issued by NWS Albuquerque, NM

Home | Current Version | Previous Version | Text Only | Print | Product List | Glossary On
Versions: 1 2 3 4 5 6 7 8 9 10 11 12 13 14 15 16 17 18 19 20 21 22 23 24 25 26 27 28 29 30 31 32 33 34
000
FTUS45 KABQ 200523
TAFABQ
TAF
KABQ 200523Z 2006/2106 13007KT P6SM SKC
     FM201500 18006KT P6SM SCT150
     FM202000 21013G22KT P6SM BKN140
     FM202300 25013G22KT P6SM BKN130
     FM210200 32007KT P6SM SCT200=

USA.gov is the U.S. government's official web portal to all federal, state and local government web resources and services.